createdAt,value
2022-09-26T00:02:19.896Z,15.95
2022-09-26T00:07:18.913Z,15.94
2022-09-26T00:12:18.682Z,15.84
2022-09-26T00:17:17.030Z,16.10
2022-09-26T00:22:27.965Z,15.92
2022-09-26T00:27:27.349Z,15.88
2022-09-26T00:32:25.622Z,16.19
2022-09-26T00:37:23.325Z,16.02
2022-09-26T00:42:26.338Z,16.10
2022-09-26T00:47:47.836Z,15.99
2022-09-26T00:53:05.359Z,15.80
2022-09-26T00:58:15.397Z,15.61
2022-09-26T01:03:15.213Z,15.78
2022-09-26T01:08:16.009Z,15.98
2022-09-26T01:13:15.194Z,16.03
2022-09-26T01:18:14.056Z,16.03
2022-09-26T01:23:33.528Z,16.23
2022-09-26T01:28:54.331Z,16.01
2022-09-26T01:34:45.521Z,16.34
2022-09-26T01:40:10.015Z,15.95
2022-09-26T01:45:22.055Z,15.91
2022-09-26T01:50:27.215Z,15.90
2022-09-26T01:55:36.614Z,15.69
2022-09-26T02:00:36.761Z,15.60
2022-09-26T02:05:47.385Z,15.84
2022-09-26T02:11:07.912Z,15.67
2022-09-26T02:16:09.744Z,15.77
2022-09-26T02:21:23.297Z,15.82
2022-09-26T02:26:24.704Z,15.89
2022-09-26T02:31:27.049Z,15.67
2022-09-26T02:36:25.485Z,15.41
2022-09-26T02:41:36.891Z,15.59
2022-09-26T02:47:11.721Z,15.21
2022-09-26T02:52:17.357Z,15.53
2022-09-26T02:57:34.233Z,15.48
2022-09-26T03:02:39.384Z,15.38
2022-09-26T03:07:57.068Z,15.24
2022-09-26T03:13:03.000Z,15.38
2022-09-26T03:18:04.411Z,15.44
2022-09-26T03:23:04.044Z,15.05
2022-09-26T03:28:03.939Z,15.12
2022-09-26T03:33:03.491Z,15.20
2022-09-26T03:38:03.105Z,15.09
2022-09-26T03:43:06.903Z,14.98
2022-09-26T03:48:06.560Z,14.90
2022-09-26T03:53:06.802Z,14.93
2022-09-26T03:58:04.618Z,14.88
2022-09-26T04:03:11.287Z,14.92
2022-09-26T04:08:11.213Z,14.91
2022-09-26T04:13:11.132Z,14.85
2022-09-26T04:18:12.057Z,14.90
2022-09-26T04:23:16.390Z,14.96
2022-09-26T04:28:13.974Z,14.92
2022-09-26T04:33:14.317Z,14.87
2022-09-26T04:38:22.309Z,14.79
2022-09-26T04:43:23.833Z,15.20
2022-09-26T04:48:34.320Z,15.19
2022-09-26T04:53:46.265Z,15.24
2022-09-26T04:58:56.506Z,15.47
2022-09-26T05:04:10.787Z,15.50
2022-09-26T05:09:08.771Z,15.67
2022-09-26T05:14:28.299Z,15.49
2022-09-26T05:19:27.028Z,15.59
2022-09-26T05:25:04.676Z,15.61
2022-09-26T05:30:04.669Z,15.76
2022-09-26T05:35:05.768Z,15.90
2022-09-26T05:40:31.239Z,15.96
2022-09-26T05:45:31.521Z,16.12
2022-09-26T05:50:35.425Z,16.16
2022-09-26T05:55:34.152Z,16.29
2022-09-26T06:00:55.783Z,16.49
2022-09-26T06:05:55.943Z,16.92
2022-09-26T06:11:03.597Z,17.28
2022-09-26T06:16:05.738Z,17.46
2022-09-26T06:21:12.047Z,17.50
2022-09-26T06:26:12.436Z,17.64
2022-09-26T06:31:12.169Z,18.01
2022-09-26T06:36:34.143Z,18.45
2022-09-26T06:41:35.360Z,18.86
2022-09-26T06:46:44.017Z,18.96
2022-09-26T06:51:46.642Z,19.20
2022-09-26T06:56:45.016Z,19.46
2022-09-26T07:01:44.521Z,19.29
2022-09-26T07:07:04.779Z,19.08
2022-09-26T07:12:15.106Z,19.06
2022-09-26T07:17:20.354Z,19.15
2022-09-26T07:22:37.971Z,19.13
2022-09-26T07:27:36.345Z,19.19
2022-09-26T07:32:36.483Z,19.08
2022-09-26T07:37:59.252Z,19.23
2022-09-26T07:43:19.176Z,19.39
2022-09-26T07:48:41.091Z,19.64
2022-09-26T07:53:57.081Z,19.54
2022-09-26T07:59:14.058Z,19.82
2022-09-26T08:04:25.004Z,20.21
2022-09-26T08:09:24.140Z,20.54
2022-09-26T08:14:56.909Z,20.92
2022-09-26T08:20:11.250Z,21.33
2022-09-26T08:25:14.179Z,21.75
2022-09-26T08:30:25.124Z,21.97
2022-09-26T08:35:25.557Z,22.23
2022-09-26T08:40:51.070Z,22.47
2022-09-26T08:46:44.776Z,22.66
2022-09-26T08:52:24.540Z,22.66
2022-09-26T08:57:34.417Z,22.87
2022-09-26T09:02:59.996Z,23.12
2022-09-26T09:08:00.469Z,23.17
2022-09-26T09:13:14.154Z,23.43
2022-09-26T09:18:40.579Z,23.61
2022-09-26T09:24:20.974Z,23.78
2022-09-26T09:29:39.676Z,23.69
2022-09-26T09:35:06.330Z,23.65
2022-09-26T09:40:33.358Z,23.93
2022-09-26T09:45:44.254Z,23.83
2022-09-26T09:51:18.113Z,24.18
2022-09-26T09:56:21.985Z,24.33
2022-09-26T10:01:34.702Z,24.23
2022-09-26T10:06:46.433Z,24.53
2022-09-26T10:11:52.753Z,24.39
2022-09-26T10:17:14.934Z,24.70
2022-09-26T10:22:44.237Z,24.76
2022-09-26T10:27:56.412Z,24.82
2022-09-26T10:33:05.435Z,25.25
2022-09-26T10:38:27.567Z,25.24
2022-09-26T10:43:38.291Z,25.40
2022-09-26T10:48:52.833Z,25.55
2022-09-26T10:54:21.304Z,25.70
2022-09-26T10:59:27.012Z,25.93
2022-09-26T11:04:51.596Z,26.27
2022-09-26T11:10:10.579Z,26.15
2022-09-26T11:15:26.408Z,25.96
2022-09-26T11:20:54.410Z,26.06
2022-09-26T11:25:58.734Z,25.99
2022-09-26T11:31:05.979Z,25.72
2022-09-26T11:36:53.141Z,25.74
2022-09-26T11:42:03.129Z,25.50
2022-09-26T11:47:37.081Z,25.76
2022-09-26T11:52:49.672Z,25.62
2022-09-26T11:58:24.798Z,25.83
2022-09-26T12:03:52.480Z,25.88
2022-09-26T12:08:58.251Z,26.20
2022-09-26T12:14:16.279Z,26.09
2022-09-26T12:19:32.810Z,26.58
2022-09-26T12:24:43.922Z,26.45
2022-09-26T12:29:54.519Z,26.69
2022-09-26T12:35:31.042Z,26.84
2022-09-26T12:40:38.215Z,27.12
2022-09-26T12:45:56.319Z,26.84
2022-09-26T12:51:15.676Z,26.64
2022-09-26T12:56:48.325Z,26.81
2022-09-26T13:02:17.706Z,26.77
2022-09-26T13:07:21.885Z,26.63
2022-09-26T13:12:55.696Z,26.70
2022-09-26T13:18:12.697Z,26.63
2022-09-26T13:23:27.872Z,26.39
2022-09-26T13:29:00.478Z,26.60
2022-09-26T13:34:37.741Z,26.28
2022-09-26T13:39:53.484Z,26.57
2022-09-26T13:44:57.630Z,26.66
2022-09-26T13:50:32.188Z,26.47
2022-09-26T13:55:36.000Z,26.44
2022-09-26T14:00:56.562Z,26.40
2022-09-26T14:06:15.862Z,26.29
2022-09-26T14:11:22.161Z,26.42
2022-09-26T14:16:34.704Z,26.32
2022-09-26T14:21:52.064Z,26.25
2022-09-26T14:27:27.526Z,26.22
2022-09-26T14:32:44.818Z,26.03
2022-09-26T14:37:44.006Z,26.23
2022-09-26T14:43:17.764Z,26.70
2022-09-26T14:48:38.377Z,26.70
2022-09-26T14:53:48.587Z,26.59
2022-09-26T14:58:54.998Z,26.56
2022-09-26T15:04:13.156Z,26.87
2022-09-26T15:09:54.603Z,26.79
2022-09-26T15:14:55.412Z,26.74
2022-09-26T15:19:56.156Z,26.14
2022-09-26T15:24:55.666Z,26.10
2022-09-26T15:29:58.067Z,26.23
2022-09-26T15:35:04.208Z,25.73
2022-09-26T15:40:23.285Z,25.48
2022-09-26T15:45:36.156Z,25.40
2022-09-26T15:50:45.739Z,24.99
2022-09-26T15:55:52.831Z,24.80
2022-09-26T16:00:52.297Z,24.79
2022-09-26T16:05:50.363Z,24.70
2022-09-26T16:10:57.014Z,24.32
2022-09-26T16:16:03.195Z,24.27
2022-09-26T16:21:25.982Z,24.05
2022-09-26T16:26:43.303Z,24.22
2022-09-26T16:31:47.504Z,23.99
2022-09-26T16:36:45.936Z,23.77
2022-09-26T16:42:02.372Z,23.71
2022-09-26T16:47:10.282Z,23.37
2022-09-26T16:52:27.198Z,23.33
2022-09-26T16:57:40.823Z,22.92
2022-09-26T17:02:41.993Z,22.72
2022-09-26T17:08:15.834Z,22.68
2022-09-26T17:13:29.503Z,22.53
2022-09-26T17:18:32.092Z,22.42
2022-09-26T17:23:42.069Z,22.31
2022-09-26T17:28:44.351Z,22.15
2022-09-26T17:33:43.275Z,22.14
2022-09-26T17:38:43.519Z,22.09
2022-09-26T17:43:46.576Z,22.04
2022-09-26T17:48:44.823Z,22.01
2022-09-26T17:53:50.941Z,21.77
2022-09-26T17:58:52.083Z,21.84
2022-09-26T18:03:53.585Z,21.85
2022-09-26T18:08:53.303Z,21.71
2022-09-26T18:13:57.198Z,21.81
2022-09-26T18:18:57.289Z,21.80
2022-09-26T18:23:59.954Z,21.83
2022-09-26T18:29:01.890Z,21.90
2022-09-26T18:34:01.387Z,21.73
2022-09-26T18:39:02.739Z,21.73
2022-09-26T18:44:03.070Z,21.61
2022-09-26T18:49:09.434Z,21.23
2022-09-26T18:54:15.908Z,21.07
2022-09-26T18:59:19.867Z,21.05
2022-09-26T19:04:22.456Z,21.07
2022-09-26T19:09:21.855Z,21.13
2022-09-26T19:14:25.172Z,21.07
2022-09-26T19:19:25.947Z,20.97
2022-09-26T19:24:41.182Z,21.10
2022-09-26T19:30:11.362Z,21.10
2022-09-26T19:35:33.003Z,20.76
2022-09-26T19:40:32.090Z,21.00
2022-09-26T19:45:35.813Z,20.98
2022-09-26T19:50:34.613Z,21.13
2022-09-26T19:55:36.594Z,21.07
2022-09-26T20:00:41.568Z,20.89
2022-09-26T20:05:40.462Z,21.13
2022-09-26T20:10:42.049Z,21.04
2022-09-26T20:15:41.082Z,21.04
2022-09-26T20:20:48.429Z,21.20
2022-09-26T20:25:48.226Z,21.15
2022-09-26T20:30:54.553Z,21.10
2022-09-26T20:36:04.626Z,20.90
2022-09-26T20:41:12.052Z,21.10
2022-09-26T20:46:15.665Z,21.05
2022-09-26T20:51:21.295Z,20.91
2022-09-26T20:56:21.413Z,21.23
2022-09-26T21:01:22.075Z,20.96
2022-09-26T21:06:31.076Z,20.93
2022-09-26T21:11:29.698Z,20.91
2022-09-26T21:16:28.604Z,20.97
2022-09-26T21:21:31.644Z,20.90
2022-09-26T21:26:32.627Z,20.70
2022-09-26T21:31:33.783Z,20.75
2022-09-26T21:36:35.930Z,20.86
2022-09-26T21:41:34.266Z,20.83
2022-09-26T21:46:33.726Z,20.98
2022-09-26T21:51:33.369Z,20.83
2022-09-26T21:56:38.399Z,20.80
2022-09-26T22:01:37.838Z,20.26
2022-09-26T22:06:38.177Z,20.38
2022-09-26T22:11:37.092Z,20.17
2022-09-26T22:16:41.535Z,20.21
2022-09-26T22:21:40.307Z,19.99
2022-09-26T22:26:38.974Z,20.07
2022-09-26T22:31:39.424Z,20.14
2022-09-26T22:36:41.019Z,20.24
2022-09-26T22:41:40.544Z,19.67
2022-09-26T22:46:38.907Z,19.77
2022-09-26T22:51:37.232Z,19.62
2022-09-26T22:56:36.079Z,19.51
2022-09-26T23:01:35.418Z,19.56
2022-09-26T23:06:35.146Z,19.52
2022-09-26T23:11:33.627Z,19.50
2022-09-26T23:16:37.594Z,19.54
2022-09-26T23:21:37.230Z,19.31
2022-09-26T23:26:36.332Z,19.56
2022-09-26T23:31:38.421Z,19.52
2022-09-26T23:36:40.397Z,19.42
2022-09-26T23:41:39.099Z,19.83
2022-09-26T23:46:39.628Z,19.59
2022-09-26T23:51:38.671Z,19.26
2022-09-26T23:56:41.097Z,19.28
